Time;durP1;ratioP1;P1;durP2;ratioP2;P2;SDS_P1;SDS_P2;PMS_P1;PMS_P2;Temp;Humidity;BMP_temperature;BMP_pressure;BME280_temperature;BME280_humidity;BME280_pressure;Samples;Min_cycle;Max_cycle;Signal;HPM_P1;HPM_P2
2023/06/22 00:00:54;;;;;;;7.55;5.40;;;;;;;;;;5093192;28;20048;-61
2023/06/22 00:03:23;;;;;;;6.10;5.38;;;;;;;;;;5092000;28;20071;-63
2023/06/22 00:05:51;;;;;;;7.40;5.15;;;;;;;;;;5092636;28;20048;-62
2023/06/22 00:08:18;;;;;;;6.00;5.40;;;;;;;;;;5090119;28;20051;-61
2023/06/22 00:10:45;;;;;;;5.35;4.85;;;;;;;;;;5093076;28;20052;-62
2023/06/22 00:13:13;;;;;;;5.20;4.70;;;;;;;;;;5092767;28;20075;-62
2023/06/22 00:15:41;;;;;;;5.40;4.90;;;;;;;;;;5092561;28;20048;-62
2023/06/22 00:18:11;;;;;;;7.00;5.28;;;;;;;;;;5091360;28;20590;-61
2023/06/22 00:20:38;;;;;;;8.32;5.45;;;;;;;;;;5093183;28;20063;-61
2023/06/22 00:23:07;;;;;;;6.35;4.80;;;;;;;;;;5083481;28;20051;-63
2023/06/22 00:25:34;;;;;;;;;;;;;;;;;;5093281;28;20059;-62
2023/06/22 00:28:03;;;;;;;6.10;5.50;;;;;;;;;;5091224;28;19920;-63
2023/06/22 00:30:30;;;;;;;;;;;;;;;;;;5093453;28;20058;-63
2023/06/22 00:32:58;;;;;;;5.43;4.93;;;;;;;;;;5092066;28;19920;-63
2023/06/22 00:35:28;;;;;;;5.15;4.63;;;;;;;;;;5092975;28;20052;-62
2023/06/22 00:38:00;;;;;;;5.75;5.03;;;;;;;;;;5080656;28;20500;-61
2023/06/22 00:40:27;;;;;;;5.45;4.72;;;;;;;;;;5073733;28;20053;-62
2023/06/22 00:42:54;;;;;;;6.22;5.18;;;;;;;;;;5072303;28;20044;-62
2023/06/22 00:45:24;;;;;;;5.90;4.97;;;;;;;;;;5071991;28;20366;-61
2023/06/22 00:47:52;;;;;;;5.85;5.28;;;;;;;;;;5099581;28;20056;-61
2023/06/22 00:50:21;;;;;;;5.53;5.03;;;;;;;;;;5113057;28;20074;-61
2023/06/22 00:52:49;;;;;;;5.88;5.28;;;;;;;;;;5107731;28;20055;-63
2023/06/22 00:55:17;;;;;;;6.35;4.95;;;;;;;;;;5103716;28;20503;-61
2023/06/22 00:57:47;;;;;;;6.27;5.30;;;;;;;;;;5079496;28;20055;-62
2023/06/22 01:00:15;;;;;;;5.93;5.25;;;;;;;;;;5092346;28;20052;-62
2023/06/22 01:02:45;;;;;;;5.23;4.73;;;;;;;;;;5092581;28;20056;-61
2023/06/22 01:05:14;;;;;;;6.30;5.70;;;;;;;;;;5093692;28;20477;-62
2023/06/22 01:07:45;;;;;;;7.55;5.10;;;;;;;;;;5094369;28;20052;-62
2023/06/22 01:10:15;;;;;;;5.60;4.95;;;;;;;;;;5094830;28;20063;-61
2023/06/22 01:12:45;;;;;;;5.90;5.30;;;;;;;;;;5096096;28;20048;-62
2023/06/22 01:15:14;;;;;;;6.03;5.43;;;;;;;;;;5095986;28;20059;-62
2023/06/22 01:17:45;;;;;;;5.97;5.38;;;;;;;;;;5094433;28;20051;-63
2023/06/22 01:20:13;;;;;;;6.03;5.28;;;;;;;;;;5096087;28;20051;-61
2023/06/22 01:22:47;;;;;;;6.20;5.00;;;;;;;;;;5094436;28;20408;-62
2023/06/22 01:25:17;;;;;;;6.55;5.32;;;;;;;;;;5095222;28;20059;-62
2023/06/22 01:27:51;;;;;;;6.75;5.50;;;;;;;;;;5094875;28;20063;-61
2023/06/22 01:30:20;;;;;;;6.55;5.07;;;;;;;;;;5095846;28;20055;-61
2023/06/22 01:32:47;;;;;;;5.32;4.82;;;;;;;;;;5095771;28;20381;-62
2023/06/22 01:35:15;;;;;;;6.22;5.13;;;;;;;;;;5095829;28;20055;-62
2023/06/22 01:37:41;;;;;;;7.00;5.25;;;;;;;;;;5091220;28;20052;-62
2023/06/22 01:40:09;;;;;;;5.68;5.18;;;;;;;;;;5095002;28;20583;-62
2023/06/22 01:42:37;;;;;;;6.18;4.72;;;;;;;;;;5095542;28;20059;-62
2023/06/22 01:45:04;;;;;;;5.78;5.18;;;;;;;;;;5094871;28;20060;-61
2023/06/22 01:47:32;;;;;;;9.07;5.00;;;;;;;;;;5094399;28;20063;-62
2023/06/22 01:49:59;;;;;;;5.72;5.00;;;;;;;;;;5095344;28;20051;-62
2023/06/22 01:52:26;;;;;;;6.13;5.53;;;;;;;;;;5092966;28;20044;-61
2023/06/22 01:54:53;;;;;;;6.32;5.65;;;;;;;;;;5094813;28;20052;-62
2023/06/22 01:57:20;;;;;;;5.72;5.10;;;;;;;;;;5094391;28;20052;-61
2023/06/22 01:59:49;;;;;;;5.68;5.18;;;;;;;;;;5094517;28;20044;-63
2023/06/22 02:02:17;;;;;;;6.45;5.75;;;;;;;;;;5094208;28;20044;-62
2023/06/22 02:04:48;;;;;;;6.13;4.80;;;;;;;;;;5093500;28;20388;-62
2023/06/22 02:07:17;;;;;;;6.03;4.88;;;;;;;;;;5091783;28;20052;-61
2023/06/22 02:09:45;;;;;;;6.97;4.88;;;;;;;;;;5094533;28;20056;-61
2023/06/22 02:12:13;;;;;;;5.20;4.70;;;;;;;;;;5094593;28;20043;-62
2023/06/22 02:14:40;;;;;;;5.38;4.88;;;;;;;;;;5094598;28;20471;-61
2023/06/22 02:17:08;;;;;;;6.65;5.10;;;;;;;;;;5092255;28;20056;-61
2023/06/22 02:19:37;;;;;;;5.32;4.80;;;;;;;;;;5093106;28;20452;-61
2023/06/22 02:22:05;;;;;;;5.90;5.18;;;;;;;;;;5091900;28;20071;-62
2023/06/22 02:24:36;;;;;;;7.00;5.22;;;;;;;;;;5095000;28;20058;-61
2023/06/22 02:27:03;;;;;;;5.35;4.85;;;;;;;;;;5094187;28;20124;-61
2023/06/22 02:29:31;;;;;;;5.93;5.18;;;;;;;;;;5095056;28;20055;-62
2023/06/22 02:31:58;;;;;;;6.53;4.27;;;;;;;;;;5093718;28;20048;-61
2023/06/22 02:34:25;;;;;;;6.20;5.60;;;;;;;;;;5094591;28;20056;-62
2023/06/22 02:36:52;;;;;;;7.40;5.45;;;;;;;;;;5092099;28;20052;-61
2023/06/22 02:39:22;;;;;;;6.97;5.22;;;;;;;;;;5094461;28;20056;-62
2023/06/22 02:41:49;;;;;;;6.53;5.55;;;;;;;;;;5081423;28;20060;-62
2023/06/22 02:44:15;;;;;;;6.35;5.43;;;;;;;;;;5082691;28;20055;-61
2023/06/22 02:46:42;;;;;;;5.72;5.13;;;;;;;;;;5085300;28;20052;-62
2023/06/22 02:49:09;;;;;;;5.72;5.13;;;;;;;;;;5087743;28;20060;-61
2023/06/22 02:51:36;;;;;;;5.63;5.10;;;;;;;;;;5091865;28;20048;-61
2023/06/22 02:54:05;;;;;;;5.97;4.85;;;;;;;;;;5086787;28;20052;-61
2023/06/22 02:56:33;;;;;;;5.68;5.10;;;;;;;;;;5088091;28;20075;-61
2023/06/22 02:59:01;;;;;;;7.10;5.30;;;;;;;;;;5088359;28;20056;-61
2023/06/22 03:01:29;;;;;;;5.30;4.80;;;;;;;;;;5091251;28;20055;-62
2023/06/22 03:03:56;;;;;;;6.70;4.90;;;;;;;;;;5086777;28;20048;-61
2023/06/22 03:06:28;;;;;;;7.38;5.60;;;;;;;;;;5090822;28;20056;-62
2023/06/22 03:08:58;;;;;;;9.23;5.85;;;;;;;;;;5086358;28;20052;-61
2023/06/22 03:11:25;;;;;;;7.68;4.60;;;;;;;;;;5090427;28;20404;-62
2023/06/22 03:13:58;;;;;;;6.35;5.50;;;;;;;;;;5079703;28;20052;-62
2023/06/22 03:16:25;;;;;;;8.73;5.38;;;;;;;;;;5090141;28;20397;-61
2023/06/22 03:18:53;;;;;;;12.40;6.30;;;;;;;;;;5093298;28;20114;-62
2023/06/22 03:21:20;;;;;;;6.15;5.55;;;;;;;;;;5093518;28;20048;-62
2023/06/22 03:23:47;;;;;;;6.20;5.53;;;;;;;;;;5080141;28;20872;-61
2023/06/22 03:26:13;;;;;;;8.50;5.93;;;;;;;;;;5089170;28;20476;-61
2023/06/22 03:28:40;;;;;;;7.80;5.93;;;;;;;;;;5089912;28;20424;-61
2023/06/22 03:31:09;;;;;;;5.82;5.15;;;;;;;;;;5088037;28;20404;-61
2023/06/22 03:33:35;;;;;;;6.00;4.60;;;;;;;;;;5086728;28;20055;-61
2023/06/22 03:36:02;;;;;;;6.43;5.68;;;;;;;;;;5087061;28;20055;-62
2023/06/22 03:38:29;;;;;;;7.22;5.10;;;;;;;;;;5078543;28;20048;-60
2023/06/22 03:40:58;;;;;;;7.15;5.30;;;;;;;;;;5086359;28;20448;-61
2023/06/22 03:43:25;;;;;;;8.00;6.22;;;;;;;;;;5086860;28;20044;-61
2023/06/22 03:45:52;;;;;;;7.22;6.43;;;;;;;;;;5085575;28;20051;-61
2023/06/22 03:48:21;;;;;;;7.55;6.38;;;;;;;;;;5093006;28;20480;-61
2023/06/22 03:50:48;;;;;;;8.00;6.15;;;;;;;;;;5072624;28;20055;-61
2023/06/22 03:53:18;;;;;;;7.88;5.50;;;;;;;;;;5073466;28;20048;-61
2023/06/22 03:55:49;;;;;;;7.22;5.93;;;;;;;;;;5093271;28;20052;-61
2023/06/22 03:58:16;;;;;;;7.53;5.32;;;;;;;;;;5091438;28;20412;-61
2023/06/22 04:00:43;;;;;;;7.07;5.57;;;;;;;;;;5091268;28;20048;-61
2023/06/22 04:03:11;;;;;;;8.45;6.40;;;;;;;;;;5091798;28;20060;-61
2023/06/22 04:05:41;;;;;;;8.00;5.97;;;;;;;;;;5092941;28;20059;-61
2023/06/22 04:08:08;;;;;;;5.93;5.25;;;;;;;;;;5089348;28;20048;-61
2023/06/22 04:10:35;;;;;;;6.18;5.57;;;;;;;;;;5092129;28;20412;-62
2023/06/22 04:13:02;;;;;;;6.75;6.05;;;;;;;;;;5091930;28;20048;-62
2023/06/22 04:21:54;;;;;;;10.20;7.22;;;;;;;;;;4072644;28;22082;-62
2023/06/22 04:24:25;;;;;;;10.32;7.38;;;;;;;;;;4893528;28;20051;-60
2023/06/22 04:26:54;;;;;;;9.32;7.45;;;;;;;;;;5092200;28;20055;-60
2023/06/22 04:29:29;;;;;;;14.45;7.32;;;;;;;;;;5091644;28;20060;-60
2023/06/22 04:31:58;;;;;;;10.55;7.80;;;;;;;;;;5091458;28;20048;-60
2023/06/22 04:34:26;;;;;;;9.30;7.27;;;;;;;;;;5092614;28;20051;-60
2023/06/22 04:36:52;;;;;;;10.25;7.43;;;;;;;;;;5088603;28;20056;-60
2023/06/22 04:39:19;;;;;;;9.60;7.63;;;;;;;;;;5090937;28;20412;-60
2023/06/22 04:41:47;;;;;;;10.73;8.00;;;;;;;;;;5089743;28;20052;-60
2023/06/22 04:44:23;;;;;;;7.60;6.80;;;;;;;;;;5094485;28;20048;-61
2023/06/22 04:46:53;;;;;;;10.02;7.13;;;;;;;;;;5095575;28;20059;-60
2023/06/22 04:49:21;;;;;;;8.75;7.80;;;;;;;;;;5078193;28;20056;-61
2023/06/22 04:51:48;;;;;;;9.98;8.50;;;;;;;;;;5093602;28;20052;-61
2023/06/22 04:54:15;;;;;;;11.25;8.07;;;;;;;;;;5098783;28;20059;-60
2023/06/22 04:56:46;;;;;;;10.23;8.85;;;;;;;;;;5096590;28;20058;-61
2023/06/22 04:59:14;;;;;;;14.27;10.18;;;;;;;;;;5096561;28;20048;-62
2023/06/22 05:01:41;;;;;;;13.87;10.50;;;;;;;;;;5094976;28;20055;-62
2023/06/22 05:04:09;;;;;;;12.25;8.48;;;;;;;;;;5095068;28;20056;-61
2023/06/22 05:06:36;;;;;;;11.80;9.65;;;;;;;;;;5092659;28;20059;-61
2023/06/22 05:09:04;;;;;;;10.05;9.05;;;;;;;;;;5095932;28;20052;-61
2023/06/22 05:11:32;;;;;;;10.73;9.70;;;;;;;;;;5091365;28;20415;-61
2023/06/22 05:13:59;;;;;;;12.63;9.68;;;;;;;;;;5092786;28;20052;-61
2023/06/22 05:16:30;;;;;;;10.52;9.05;;;;;;;;;;5091666;28;20044;-61
2023/06/22 05:18:57;;;;;;;13.15;10.57;;;;;;;;;;5094706;28;20055;-62
2023/06/22 05:21:25;;;;;;;10.48;8.50;;;;;;;;;;5093258;28;20044;-42
2023/06/22 05:23:53;;;;;;;10.93;9.82;;;;;;;;;;5095348;28;20400;-42
2023/06/22 05:26:20;;;;;;;11.98;10.52;;;;;;;;;;5095916;28;20063;-42
2023/06/22 05:28:47;;;;;;;11.80;10.60;;;;;;;;;;5095540;28;20074;-42
2023/06/22 05:31:14;;;;;;;12.07;10.57;;;;;;;;;;5095784;28;20059;-42
2023/06/22 05:33:44;;;;;;;12.23;10.13;;;;;;;;;;5092815;28;20048;-42
2023/06/22 05:36:10;;;;;;;;;;;;;;;;;;5090166;28;20056;-42
2023/06/22 05:38:37;;;;;;;11.68;10.48;;;;;;;;;;5094903;28;19927;-41
2023/06/22 05:41:04;;;;;;;11.70;10.50;;;;;;;;;;5095347;28;20422;-42
2023/06/22 05:43:30;;;;;;;13.45;11.07;;;;;;;;;;5093757;28;20048;-42
2023/06/22 05:45:58;;;;;;;12.48;11.15;;;;;;;;;;5094648;28;20056;-42
2023/06/22 05:48:24;;;;;;;11.30;10.20;;;;;;;;;;5094586;28;20066;-41
2023/06/22 05:50:53;;;;;;;12.73;11.52;;;;;;;;;;5089768;28;20412;-64
2023/06/22 05:53:20;;;;;;;13.43;11.63;;;;;;;;;;5072399;28;20420;-62
2023/06/22 05:55:47;;;;;;;13.40;12.10;;;;;;;;;;5095026;28;20056;-64
2023/06/22 05:58:14;;;;;;;16.40;12.23;;;;;;;;;;5095053;28;20075;-64
2023/06/22 06:00:41;;;;;;;14.40;12.95;;;;;;;;;;5091847;28;20048;-63
2023/06/22 06:03:09;;;;;;;16.40;11.70;;;;;;;;;;5074744;28;20052;-63
2023/06/22 06:05:36;;;;;;;11.85;10.65;;;;;;;;;;5077322;28;20044;-63
2023/06/22 06:08:05;;;;;;;14.10;12.48;;;;;;;;;;5086045;28;20063;-63
2023/06/22 06:10:32;;;;;;;12.48;11.23;;;;;;;;;;5088950;28;20048;-63
2023/06/22 06:13:01;;;;;;;15.15;13.48;;;;;;;;;;5086477;28;20048;-63
2023/06/22 06:15:29;;;;;;;14.57;13.18;;;;;;;;;;5084727;28;20051;-64
2023/06/22 06:17:57;;;;;;;13.27;11.93;;;;;;;;;;5091843;28;20052;-64
2023/06/22 06:20:25;;;;;;;14.88;12.57;;;;;;;;;;5093793;28;20048;-63
2023/06/22 06:22:53;;;;;;;13.18;11.70;;;;;;;;;;5092385;28;20060;-63
2023/06/22 06:25:21;;;;;;;12.82;11.52;;;;;;;;;;5093265;28;20059;-63
2023/06/22 06:30:53;;;;;;;15.70;12.60;;;;;;;;;;5094736;28;20039;-63
2023/06/22 06:33:20;;;;;;;13.32;11.98;;;;;;;;;;5091935;28;20488;-63
2023/06/22 06:35:49;;;;;;;13.18;11.75;;;;;;;;;;5106502;28;20044;-63
2023/06/22 06:38:16;;;;;;;14.50;13.00;;;;;;;;;;5110378;28;20060;-64
2023/06/22 06:40:47;;;;;;;14.68;13.02;;;;;;;;;;5115178;28;20063;-64
2023/06/22 06:43:15;;;;;;;16.25;13.02;;;;;;;;;;5111904;28;20400;-63
2023/06/22 06:45:43;;;;;;;12.80;11.60;;;;;;;;;;5114874;28;20079;-63
2023/06/22 06:48:10;;;;;;;13.75;12.45;;;;;;;;;;5114092;28;20051;-63
2023/06/22 06:50:37;;;;;;;13.80;12.38;;;;;;;;;;5114617;28;20412;-64
2023/06/22 06:53:05;;;;;;;14.32;12.90;;;;;;;;;;5106318;28;20043;-63
2023/06/22 06:55:34;;;;;;;14.10;12.80;;;;;;;;;;5110422;28;20071;-63
2023/06/22 06:58:04;;;;;;;13.77;12.43;;;;;;;;;;5108331;28;20818;-63
2023/06/22 07:00:33;;;;;;;12.48;11.38;;;;;;;;;;5114630;28;20051;-64
2023/06/22 07:03:00;;;;;;;13.13;11.55;;;;;;;;;;5113628;28;20047;-64
2023/06/22 07:05:28;;;;;;;12.43;10.95;;;;;;;;;;5092457;28;20056;-63
2023/06/22 07:07:55;;;;;;;13.32;11.93;;;;;;;;;;5107135;28;20054;-63
2023/06/22 07:10:22;;;;;;;13.25;11.98;;;;;;;;;;5113862;28;20058;-63
2023/06/22 07:12:49;;;;;;;12.43;11.15;;;;;;;;;;5114248;28;20349;-63
2023/06/22 07:15:17;;;;;;;13.60;12.23;;;;;;;;;;5108045;28;20380;-63
2023/06/22 07:17:43;;;;;;;15.48;13.85;;;;;;;;;;5113933;28;20062;-63
2023/06/22 07:20:11;;;;;;;13.43;12.02;;;;;;;;;;5096452;28;20059;-63
2023/06/22 07:22:39;;;;;;;12.77;11.27;;;;;;;;;;5092313;28;20055;-63
2023/06/22 07:25:09;;;;;;;13.82;12.43;;;;;;;;;;5092757;28;20051;-63
2023/06/22 07:27:37;;;;;;;13.20;11.90;;;;;;;;;;5112135;28;20054;-63
2023/06/22 07:30:04;;;;;;;13.70;11.88;;;;;;;;;;5113659;28;20062;-64
2023/06/22 07:32:33;;;;;;;13.77;12.30;;;;;;;;;;5110660;28;20055;-63
2023/06/22 07:35:00;;;;;;;13.82;12.10;;;;;;;;;;5092195;28;20408;-64
2023/06/22 07:37:28;;;;;;;12.88;11.57;;;;;;;;;;5090649;28;20954;-63
2023/06/22 07:39:58;;;;;;;13.00;11.77;;;;;;;;;;5113661;28;20063;-63
2023/06/22 07:42:25;;;;;;;13.38;12.00;;;;;;;;;;5111566;28;20074;-62
2023/06/22 07:44:52;;;;;;;12.65;11.52;;;;;;;;;;5093023;28;20059;-62
2023/06/22 07:47:19;;;;;;;13.57;11.88;;;;;;;;;;5092784;28;20059;-63
2023/06/22 07:49:47;;;;;;;13.32;11.82;;;;;;;;;;5092484;28;20416;-63
2023/06/22 07:52:14;;;;;;;13.13;10.40;;;;;;;;;;5093007;28;20063;-62
2023/06/22 07:54:41;;;;;;;12.30;11.00;;;;;;;;;;5089023;28;20365;-63
2023/06/22 07:57:07;;;;;;;13.13;11.77;;;;;;;;;;5092524;28;20070;-63
2023/06/22 07:59:34;;;;;;;12.00;10.50;;;;;;;;;;5092834;28;20052;-63
2023/06/22 08:02:03;;;;;;;13.20;11.18;;;;;;;;;;5093025;28;20052;-63
2023/06/22 08:04:30;;;;;;;11.38;10.32;;;;;;;;;;5092030;28;20439;-63
2023/06/22 08:06:59;;;;;;;13.10;11.90;;;;;;;;;;5092595;28;20408;-62
2023/06/22 08:09:25;;;;;;;11.35;10.35;;;;;;;;;;5090562;28;20056;-63
2023/06/22 08:11:53;;;;;;;11.50;10.35;;;;;;;;;;5092453;28;20052;-64
2023/06/22 08:14:19;;;;;;;11.23;10.23;;;;;;;;;;5090224;28;20078;-64
2023/06/22 08:16:46;;;;;;;10.27;9.38;;;;;;;;;;5092077;28;20052;-64
2023/06/22 08:19:13;;;;;;;9.80;8.52;;;;;;;;;;5090997;28;20052;-65
2023/06/22 08:21:40;;;;;;;10.27;9.27;;;;;;;;;;5091509;28;20421;-64
2023/06/22 08:24:08;;;;;;;9.85;8.95;;;;;;;;;;5088544;28;20052;-65
2023/06/22 08:26:37;;;;;;;9.45;8.65;;;;;;;;;;5092829;28;20048;-65
2023/06/22 08:29:04;;;;;;;8.68;7.88;;;;;;;;;;5093403;28;20059;-65
2023/06/22 08:31:31;;;;;;;10.02;9.13;;;;;;;;;;5087645;28;20071;-64
2023/06/22 08:33:58;;;;;;;9.23;8.43;;;;;;;;;;5092468;28;20055;-65
2023/06/22 08:36:28;;;;;;;9.85;8.93;;;;;;;;;;5092540;28;20526;-65
2023/06/22 08:39:01;;;;;;;9.35;8.55;;;;;;;;;;5085995;28;20484;-64
2023/06/22 08:41:29;;;;;;;9.50;8.57;;;;;;;;;;5090782;28;20393;-64
2023/06/22 08:43:56;;;;;;;9.68;8.77;;;;;;;;;;5092208;28;20051;-63
2023/06/22 08:46:29;;;;;;;9.60;8.77;;;;;;;;;;5092506;28;20167;-63
2023/06/22 08:48:59;;;;;;;9.02;8.25;;;;;;;;;;5091141;28;20400;-64
2023/06/22 08:51:26;;;;;;;8.30;7.43;;;;;;;;;;5089909;28;20048;-64
2023/06/22 08:53:53;;;;;;;9.45;8.05;;;;;;;;;;5086699;28;20048;-63
2023/06/22 08:56:19;;;;;;;7.65;6.90;;;;;;;;;;5089209;28;20419;-65
2023/06/22 08:58:48;;;;;;;8.77;7.85;;;;;;;;;;5089630;28;20380;-64
2023/06/22 09:01:15;;;;;;;;;;;;;;;;;;5092760;28;20067;-64
2023/06/22 09:03:41;;;;;;;9.00;7.73;;;;;;;;;;5092081;28;19920;-62
2023/06/22 09:06:09;;;;;;;7.43;6.82;;;;;;;;;;5091755;28;20386;-62
2023/06/22 09:08:46;;;;;;;7.97;7.10;;;;;;;;;;5078642;28;20052;-64
2023/06/22 09:11:12;;;;;;;7.30;6.60;;;;;;;;;;5088020;28;20063;-65
2023/06/22 09:13:41;;;;;;;8.43;7.22;;;;;;;;;;5091716;28;20055;-64
2023/06/22 09:16:09;;;;;;;8.00;7.30;;;;;;;;;;5075954;28;20489;-63
2023/06/22 09:18:38;;;;;;;7.65;6.95;;;;;;;;;;5074807;28;20420;-63
2023/06/22 09:21:05;;;;;;;6.90;6.30;;;;;;;;;;5091991;28;20073;-63
2023/06/22 09:23:31;;;;;;;7.25;6.55;;;;;;;;;;5087271;28;20056;-63
2023/06/22 09:25:58;;;;;;;8.73;7.05;;;;;;;;;;5093118;28;20040;-65
2023/06/22 09:28:25;;;;;;;7.60;6.88;;;;;;;;;;5094185;28;20059;-63
2023/06/22 09:30:58;;;;;;;7.55;6.82;;;;;;;;;;5096036;28;20052;-64
2023/06/22 09:33:27;;;;;;;7.20;6.60;;;;;;;;;;5095631;28;20052;-63
2023/06/22 09:35:56;;;;;;;7.00;6.40;;;;;;;;;;5095559;28;20457;-63
2023/06/22 09:38:23;;;;;;;7.70;7.00;;;;;;;;;;5088531;28;20052;-63
2023/06/22 09:40:50;;;;;;;7.25;6.65;;;;;;;;;;5055611;28;20072;-63
2023/06/22 09:43:17;;;;;;;7.85;7.05;;;;;;;;;;5055348;28;20413;-63
2023/06/22 09:45:50;;;;;;;7.30;6.65;;;;;;;;;;5060047;28;20056;-62
2023/06/22 09:48:25;;;;;;;7.45;6.85;;;;;;;;;;5094064;28;20056;-64
2023/06/22 09:50:57;;;;;;;7.40;6.80;;;;;;;;;;5095802;28;20078;-65
2023/06/22 09:53:24;;;;;;;7.82;7.13;;;;;;;;;;5089704;28;20486;-65
2023/06/22 09:55:51;;;;;;;8.35;7.72;;;;;;;;;;5092613;28;20048;-65
2023/06/22 09:58:18;;;;;;;8.63;7.93;;;;;;;;;;5095512;28;20048;-65
2023/06/22 10:00:44;;;;;;;8.65;7.70;;;;;;;;;;5095703;28;20070;-65
2023/06/22 10:03:11;;;;;;;8.93;8.20;;;;;;;;;;5093402;28;20420;-64
2023/06/22 10:05:38;;;;;;;8.93;7.55;;;;;;;;;;5095525;28;20070;-64
2023/06/22 10:08:07;;;;;;;8.57;7.88;;;;;;;;;;5079988;28;20053;-63
2023/06/22 10:10:34;;;;;;;8.38;7.65;;;;;;;;;;5087258;28;20048;-63
2023/06/22 10:13:04;;;;;;;7.68;6.97;;;;;;;;;;5095112;28;20052;-62
2023/06/22 10:15:30;;;;;;;12.60;7.80;;;;;;;;;;5054861;28;20053;-64
2023/06/22 10:17:57;;;;;;;7.78;6.97;;;;;;;;;;5061245;28;20052;-64
2023/06/22 10:20:25;;;;;;;8.05;6.78;;;;;;;;;;5088080;28;20496;-63
2023/06/22 10:22:53;;;;;;;7.45;6.72;;;;;;;;;;5090974;28;20062;-62
2023/06/22 10:25:21;;;;;;;7.07;6.32;;;;;;;;;;5090679;28;20428;-63
2023/06/22 10:27:47;;;;;;;;;;;;;;;;;;5095019;28;20416;-64
2023/06/22 10:30:18;;;;;;;7.30;6.70;;;;;;;;;;5094980;28;19920;-62
2023/06/22 10:32:46;;;;;;;7.72;7.03;;;;;;;;;;5093030;28;20060;-63
2023/06/22 10:35:15;;;;;;;8.57;7.60;;;;;;;;;;5095156;28;20059;-64
2023/06/22 10:37:43;;;;;;;7.38;6.68;;;;;;;;;;5092686;28;20052;-64
2023/06/22 10:40:12;;;;;;;8.75;7.85;;;;;;;;;;5088676;28;20052;-64
2023/06/22 10:42:44;;;;;;;8.73;7.82;;;;;;;;;;5094286;28;20059;-64
2023/06/22 10:45:14;;;;;;;8.93;8.13;;;;;;;;;;5094769;28;20052;-65
2023/06/22 10:47:46;;;;;;;8.93;7.95;;;;;;;;;;5094519;28;20052;-64
2023/06/22 10:50:13;;;;;;;7.53;6.82;;;;;;;;;;5093417;28;20059;-64
2023/06/22 10:52:42;;;;;;;8.07;7.05;;;;;;;;;;5094256;28;20412;-64
2023/06/22 10:55:12;;;;;;;7.75;7.00;;;;;;;;;;5088774;28;20048;-64
2023/06/22 10:57:42;;;;;;;8.43;7.63;;;;;;;;;;5093822;28;20126;-64
2023/06/22 11:00:11;;;;;;;8.55;7.65;;;;;;;;;;5094067;28;20052;-65
2023/06/22 11:02:44;;;;;;;9.65;7.68;;;;;;;;;;5092891;28;20047;-62
2023/06/22 11:05:10;;;;;;;7.75;6.95;;;;;;;;;;5094348;28;20059;-63
2023/06/22 11:07:38;;;;;;;7.88;7.18;;;;;;;;;;5088130;28;20051;-64
2023/06/22 11:10:06;;;;;;;7.47;6.88;;;;;;;;;;5089965;28;20047;-65
2023/06/22 11:12:33;;;;;;;11.07;8.10;;;;;;;;;;5093878;28;20059;-64
2023/06/22 11:14:59;;;;;;;8.18;7.40;;;;;;;;;;5093791;28;20056;-64
2023/06/22 11:17:28;;;;;;;9.63;8.73;;;;;;;;;;5093508;28;20051;-64
2023/06/22 11:19:54;;;;;;;8.35;7.53;;;;;;;;;;5092252;28;20059;-64
2023/06/22 11:22:21;;;;;;;9.57;8.18;;;;;;;;;;5090345;28;20052;-64
2023/06/22 11:24:48;;;;;;;9.23;8.40;;;;;;;;;;5088033;28;20343;-64
2023/06/22 11:27:16;;;;;;;9.35;8.45;;;;;;;;;;5084285;28;20063;-64
2023/06/22 11:29:43;;;;;;;8.18;7.38;;;;;;;;;;5080539;28;20389;-64
2023/06/22 11:32:10;;;;;;;8.57;7.78;;;;;;;;;;5092665;28;20067;-64
2023/06/22 11:34:38;;;;;;;10.20;8.25;;;;;;;;;;5090326;28;20496;-64
2023/06/22 11:37:05;;;;;;;9.23;8.43;;;;;;;;;;5093127;28;20485;-64
2023/06/22 11:39:31;;;;;;;10.55;9.45;;;;;;;;;;5093244;28;20056;-64
2023/06/22 11:41:58;;;;;;;10.57;9.57;;;;;;;;;;5087650;28;20052;-64
2023/06/22 11:44:25;;;;;;;9.73;8.75;;;;;;;;;;5092859;28;20052;-64
2023/06/22 11:46:52;;;;;;;10.48;9.48;;;;;;;;;;5085502;28;20055;-65
2023/06/22 11:49:19;;;;;;;10.73;9.63;;;;;;;;;;5091908;28;20056;-65
2023/06/22 11:51:50;;;;;;;10.63;9.68;;;;;;;;;;5093152;28;20047;-65
2023/06/22 11:54:16;;;;;;;9.40;8.43;;;;;;;;;;5087662;28;20060;-65
2023/06/22 11:56:54;;;;;;;11.00;10.00;;;;;;;;;;5092227;28;20047;-65
2023/06/22 11:59:22;;;;;;;12.63;11.57;;;;;;;;;;5085079;28;20054;-65
2023/06/22 12:01:50;;;;;;;11.80;10.68;;;;;;;;;;5078445;28;20056;-64
2023/06/22 12:04:17;;;;;;;12.48;11.38;;;;;;;;;;5072667;28;20060;-65
2023/06/22 12:06:52;;;;;;;13.20;11.75;;;;;;;;;;5072785;28;20397;-65
2023/06/22 12:09:20;;;;;;;12.15;11.00;;;;;;;;;;5070925;28;20056;-64
2023/06/22 12:11:47;;;;;;;14.73;13.00;;;;;;;;;;5112252;28;20070;-63
2023/06/22 12:14:14;;;;;;;15.07;13.65;;;;;;;;;;5112718;28;20585;-62
2023/06/22 12:16:43;;;;;;;16.20;14.60;;;;;;;;;;5112944;28;20391;-62
2023/06/22 12:19:10;;;;;;;15.43;13.90;;;;;;;;;;5103676;28;20549;-63
2023/06/22 12:21:38;;;;;;;15.50;13.95;;;;;;;;;;5103698;28;20047;-63
2023/06/22 12:24:05;;;;;;;20.42;17.73;;;;;;;;;;5112593;28;20055;-64
2023/06/22 12:26:33;;;;;;;18.80;16.98;;;;;;;;;;5108971;28;20050;-63
2023/06/22 12:29:01;;;;;;;19.47;17.27;;;;;;;;;;5112584;28;20056;-64
2023/06/22 12:31:27;;;;;;;20.35;18.23;;;;;;;;;;5109279;28;20055;-63
2023/06/22 12:33:54;;;;;;;22.38;19.65;;;;;;;;;;5111324;28;20062;-62
2023/06/22 12:36:21;;;;;;;19.60;17.58;;;;;;;;;;5108659;28;20047;-64
2023/06/22 12:38:48;;;;;;;23.60;20.52;;;;;;;;;;5108391;28;20052;-64
2023/06/22 12:41:14;;;;;;;19.42;16.45;;;;;;;;;;5106604;28;20058;-64
2023/06/22 12:43:43;;;;;;;18.35;16.27;;;;;;;;;;5092403;28;20063;-64
2023/06/22 12:46:09;;;;;;;16.77;14.90;;;;;;;;;;5092666;28;20074;-64
2023/06/22 12:48:41;;;;;;;16.98;15.27;;;;;;;;;;5111373;28;20055;-64
2023/06/22 12:51:08;;;;;;;16.85;15.30;;;;;;;;;;5112621;28;20051;-63
2023/06/22 12:53:35;;;;;;;14.90;13.32;;;;;;;;;;5112734;28;20058;-64
2023/06/22 12:56:01;;;;;;;15.65;14.18;;;;;;;;;;5099890;28;20070;-64
2023/06/22 12:58:28;;;;;;;15.18;12.73;;;;;;;;;;5109698;28;20380;-64
2023/06/22 13:00:56;;;;;;;14.45;13.05;;;;;;;;;;5113763;28;20048;-64
2023/06/22 13:03:25;;;;;;;13.07;11.73;;;;;;;;;;5116848;28;20048;-65
2023/06/22 13:05:52;;;;;;;12.77;11.52;;;;;;;;;;5116806;28;20054;-64
2023/06/22 13:08:19;;;;;;;13.68;10.90;;;;;;;;;;5111842;28;20533;-64
2023/06/22 13:10:46;;;;;;;12.30;11.07;;;;;;;;;;5113578;28;20555;-64
2023/06/22 13:13:12;;;;;;;10.30;9.35;;;;;;;;;;5116392;28;20051;-64
2023/06/22 13:15:43;;;;;;;11.23;10.23;;;;;;;;;;5107041;28;20051;-64
2023/06/22 13:18:11;;;;;;;12.07;10.98;;;;;;;;;;5096123;28;20051;-64
2023/06/22 13:20:38;;;;;;;11.97;10.77;;;;;;;;;;5109460;28;20070;-65
2023/06/22 13:23:04;;;;;;;13.00;11.70;;;;;;;;;;5116310;28;20060;-64
2023/06/22 13:25:31;;;;;;;11.45;10.45;;;;;;;;;;5109887;28;20052;-64
2023/06/22 13:27:58;;;;;;;13.07;11.77;;;;;;;;;;5111521;28;20052;-63
2023/06/22 13:30:25;;;;;;;12.00;10.90;;;;;;;;;;5116757;28;20403;-64
2023/06/22 13:32:52;;;;;;;12.48;11.27;;;;;;;;;;5109499;28;20055;-64
2023/06/22 13:35:21;;;;;;;10.38;9.02;;;;;;;;;;5115329;28;20055;-64
2023/06/22 13:37:47;;;;;;;10.95;9.85;;;;;;;;;;5116151;28;20385;-64
2023/06/22 13:40:14;;;;;;;9.50;8.57;;;;;;;;;;5116230;28;20059;-64
2023/06/22 13:42:41;;;;;;;8.02;7.22;;;;;;;;;;5110451;28;20059;-64
2023/06/22 13:45:08;;;;;;;7.35;6.68;;;;;;;;;;5116041;28;20063;-63
2023/06/22 13:47:35;;;;;;;7.00;6.30;;;;;;;;;;5115925;28;20052;-64
2023/06/22 13:50:02;;;;;;;8.40;7.53;;;;;;;;;;5116053;28;20052;-64
2023/06/22 13:52:30;;;;;;;9.88;8.95;;;;;;;;;;5112476;28;20496;-64
2023/06/22 13:54:57;;;;;;;9.07;8.25;;;;;;;;;;5114047;28;20058;-64
2023/06/22 13:57:23;;;;;;;10.00;9.02;;;;;;;;;;5112565;28;20048;-64
2023/06/22 13:59:50;;;;;;;9.00;7.53;;;;;;;;;;5115608;28;20065;-64
2023/06/22 14:02:17;;;;;;;9.27;8.30;;;;;;;;;;5112669;28;20062;-62
2023/06/22 14:04:44;;;;;;;8.40;7.70;;;;;;;;;;5102288;28;20051;-62
2023/06/22 14:07:10;;;;;;;8.25;7.55;;;;;;;;;;5115323;28;20052;-63
2023/06/22 14:09:39;;;;;;;7.85;7.10;;;;;;;;;;5115561;28;20056;-62
2023/06/22 14:12:06;;;;;;;8.40;7.60;;;;;;;;;;5104185;28;20055;-64
2023/06/22 14:14:33;;;;;;;8.55;6.55;;;;;;;;;;5109837;28;20510;-62
2023/06/22 14:16:59;;;;;;;7.75;7.05;;;;;;;;;;5094715;28;20408;-63
2023/06/22 14:19:26;;;;;;;7.20;6.50;;;;;;;;;;5099080;28;20051;-62
2023/06/22 14:21:53;;;;;;;7.40;6.80;;;;;;;;;;5114868;28;20051;-63
2023/06/22 14:24:20;;;;;;;7.50;6.75;;;;;;;;;;5114809;28;20060;-63
2023/06/22 14:26:48;;;;;;;6.80;6.20;;;;;;;;;;5093122;28;20639;-63
2023/06/22 14:29:15;;;;;;;7.88;7.18;;;;;;;;;;5110824;28;20369;-63
2023/06/22 14:31:41;;;;;;;8.05;7.15;;;;;;;;;;5114399;28;20043;-62
2023/06/22 14:34:08;;;;;;;8.10;7.30;;;;;;;;;;5114836;28;20067;-63
2023/06/22 14:36:35;;;;;;;8.70;6.97;;;;;;;;;;5114947;28;20059;-62
2023/06/22 14:39:02;;;;;;;7.90;7.10;;;;;;;;;;5105056;28;20052;-63
2023/06/22 14:41:29;;;;;;;8.20;7.50;;;;;;;;;;5114398;28;20051;-63
2023/06/22 14:43:58;;;;;;;7.78;7.07;;;;;;;;;;5107439;28;20052;-63
2023/06/22 14:46:24;;;;;;;8.50;7.80;;;;;;;;;;5114884;28;20499;-64
2023/06/22 14:48:51;;;;;;;10.82;8.63;;;;;;;;;;5114409;28;20066;-64